Time;durP1;ratioP1;P1;durP2;ratioP2;P2;SDS_P1;SDS_P2;PMS_P1;PMS_P2;Temp;Humidity;BMP_temperature;BMP_pressure;BME280_temperature;BME280_humidity;BME280_pressure;Samples;Min_cycle;Max_cycle;Signal;HPM_P1;HPM_P2
2022/01/01 00:00:09;;;;;;;63.47;33.58;;;;;;;;;;5056089;28;20045;-86
2022/01/01 00:02:36;;;;;;;62.67;32.10;;;;;;;;;;5053214;28;20167;-88
2022/01/01 00:05:03;;;;;;;56.47;28.77;;;;;;;;;;5054978;28;20045;-88
2022/01/01 00:07:29;;;;;;;61.13;29.73;;;;;;;;;;5055710;28;20044;-88
2022/01/01 00:09:55;;;;;;;53.60;28.17;;;;;;;;;;5055361;28;20041;-88
2022/01/01 00:12:22;;;;;;;61.35;28.17;;;;;;;;;;5053360;28;20036;-87
2022/01/01 00:14:48;;;;;;;64.57;31.30;;;;;;;;;;5060398;28;20504;-89
2022/01/01 00:17:14;;;;;;;58.17;29.73;;;;;;;;;;5055977;28;20403;-88
2022/01/01 00:19:40;;;;;;;57.00;28.48;;;;;;;;;;5058005;28;20059;-88
2022/01/01 00:22:07;;;;;;;58.92;30.35;;;;;;;;;;5057533;28;20036;-89
2022/01/01 00:24:36;;;;;;;59.40;30.88;;;;;;;;;;5054675;28;20127;-87
2022/01/01 00:27:02;;;;;;;71.90;34.25;;;;;;;;;;5060457;28;20072;-87
2022/01/01 00:29:28;;;;;;;68.13;36.08;;;;;;;;;;5051758;28;20037;-88
2022/01/01 00:31:55;;;;;;;74.70;42.67;;;;;;;;;;5041882;28;20037;-88
2022/01/01 00:34:21;;;;;;;78.45;43.08;;;;;;;;;;5051432;28;20078;-88
2022/01/01 00:36:47;;;;;;;83.78;45.30;;;;;;;;;;5038815;28;20037;-88
2022/01/01 00:39:13;;;;;;;88.78;47.30;;;;;;;;;;5055526;28;20045;-88
2022/01/01 00:41:39;;;;;;;86.53;44.92;;;;;;;;;;5058860;28;20127;-89
2022/01/01 00:44:06;;;;;;;84.63;43.22;;;;;;;;;;5041952;28;20087;-89
2022/01/01 00:46:32;;;;;;;81.20;39.00;;;;;;;;;;5064138;28;20043;-88
2022/01/01 00:48:58;;;;;;;72.10;35.75;;;;;;;;;;5054709;28;20133;-88
2022/01/01 00:51:24;;;;;;;74.05;36.25;;;;;;;;;;5060998;28;20044;-88
2022/01/01 00:53:51;;;;;;;62.70;32.58;;;;;;;;;;5062237;28;20115;-88
2022/01/01 00:56:17;;;;;;;59.25;31.27;;;;;;;;;;5049074;28;20048;-89
2022/01/01 00:58:43;;;;;;;65.32;31.70;;;;;;;;;;5062602;28;20036;-87
2022/01/01 01:01:09;;;;;;;63.13;30.58;;;;;;;;;;5050165;28;20379;-88
2022/01/01 01:03:35;;;;;;;58.78;30.13;;;;;;;;;;5054195;28;20349;-88
2022/01/01 01:06:02;;;;;;;59.55;30.17;;;;;;;;;;5065947;28;20460;-89
2022/01/01 01:08:30;;;;;;;57.47;30.15;;;;;;;;;;5039037;28;20467;-89
2022/01/01 01:10:57;;;;;;;57.53;29.50;;;;;;;;;;5065052;28;20041;-88
2022/01/01 01:13:24;;;;;;;57.83;29.08;;;;;;;;;;5048515;28;20500;-89
2022/01/01 01:15:50;;;;;;;60.05;30.05;;;;;;;;;;5032152;28;20044;-88
2022/01/01 01:18:17;;;;;;;58.15;28.67;;;;;;;;;;5054292;28;20409;-89
2022/01/01 01:20:43;;;;;;;61.22;27.08;;;;;;;;;;5055728;28;20052;-88
2022/01/01 01:23:09;;;;;;;54.88;25.58;;;;;;;;;;5058215;28;20076;-88
2022/01/01 01:25:42;;;;;;;54.42;26.77;;;;;;;;;;5059252;28;20120;-88
2022/01/01 01:28:09;;;;;;;63.33;29.45;;;;;;;;;;5054243;28;20116;-87
2022/01/01 01:30:35;;;;;;;66.55;29.13;;;;;;;;;;5049064;28;20135;-88
2022/01/01 01:33:02;;;;;;;55.97;28.20;;;;;;;;;;5061348;28;20496;-88
2022/01/01 01:35:28;;;;;;;61.10;28.95;;;;;;;;;;5058908;28;20090;-88
2022/01/01 01:37:55;;;;;;;60.53;28.05;;;;;;;;;;5064693;28;20530;-86
2022/01/01 01:40:21;;;;;;;65.50;28.55;;;;;;;;;;5038570;28;20493;-90
2022/01/01 01:42:47;;;;;;;62.80;29.83;;;;;;;;;;5061683;28;20062;-89
2022/01/01 01:45:19;;;;;;;63.58;30.20;;;;;;;;;;5063233;28;20053;-88
2022/01/01 01:47:46;;;;;;;74.60;33.45;;;;;;;;;;5058452;28;20072;-87
2022/01/01 01:50:14;;;;;;;75.60;36.45;;;;;;;;;;5041291;28;20041;-88
2022/01/01 01:52:40;;;;;;;81.15;42.60;;;;;;;;;;5051354;28;20036;-88
2022/01/01 01:55:08;;;;;;;85.40;44.00;;;;;;;;;;5041330;28;20040;-88
2022/01/01 01:57:35;;;;;;;89.65;48.45;;;;;;;;;;5056191;28;20103;-88
2022/01/01 02:00:03;;;;;;;90.43;49.20;;;;;;;;;;5042201;28;20040;-89
2022/01/01 02:02:29;;;;;;;97.40;54.25;;;;;;;;;;5061502;28;20037;-88
2022/01/01 02:04:56;;;;;;;107.70;58.78;;;;;;;;;;5059639;28;20807;-87
2022/01/01 02:07:22;;;;;;;112.20;61.08;;;;;;;;;;5064211;28;20483;-89
2022/01/01 02:09:48;;;;;;;107.63;58.45;;;;;;;;;;5071470;28;20048;-89
2022/01/01 02:12:15;;;;;;;108.80;59.60;;;;;;;;;;5061856;28;20399;-89
2022/01/01 02:17:21;;;;;;;109.20;59.17;;;;;;;;;;5063683;28;20037;-89
2022/01/01 02:19:54;;;;;;;111.40;57.72;;;;;;;;;;5051602;28;20045;-90
2022/01/01 02:22:21;;;;;;;106.50;56.50;;;;;;;;;;5067949;28;20036;-91
2022/01/01 02:24:56;;;;;;;105.40;52.50;;;;;;;;;;5061132;28;20496;-90
2022/01/01 02:27:22;;;;;;;99.88;52.25;;;;;;;;;;5067575;28;20052;-89
2022/01/01 02:29:48;;;;;;;87.55;49.85;;;;;;;;;;5054592;28;20051;-89
2022/01/01 02:32:16;;;;;;;91.43;47.58;;;;;;;;;;5071074;28;20336;-90
2022/01/01 02:34:42;;;;;;;87.13;45.40;;;;;;;;;;5060194;28;20048;-90
2022/01/01 02:37:08;;;;;;;85.97;44.17;;;;;;;;;;5041625;28;20051;-90
2022/01/01 02:39:35;;;;;;;86.05;42.42;;;;;;;;;;5068041;28;20036;-89
2022/01/01 02:42:01;;;;;;;80.70;41.97;;;;;;;;;;5034773;28;20051;-88
2022/01/01 02:44:28;;;;;;;79.68;40.75;;;;;;;;;;5056670;28;20049;-91
2022/01/01 02:46:56;;;;;;;76.43;40.15;;;;;;;;;;5066015;28;20040;-89
2022/01/01 02:49:23;;;;;;;85.20;40.50;;;;;;;;;;5061321;28;20397;-88
2022/01/01 02:51:49;;;;;;;82.60;40.55;;;;;;;;;;5061514;28;20320;-91
2022/01/01 02:54:15;;;;;;;77.55;39.67;;;;;;;;;;5057732;28;20048;-90
2022/01/01 02:56:42;;;;;;;84.50;42.00;;;;;;;;;;5065267;28;20044;-90
2022/01/01 02:59:08;;;;;;;82.63;41.08;;;;;;;;;;5061534;28;20048;-90
2022/01/01 03:01:34;;;;;;;83.75;43.28;;;;;;;;;;5048156;28;20037;-91
2022/01/01 03:04:01;;;;;;;87.03;41.83;;;;;;;;;;5050646;28;20047;-91
2022/01/01 03:06:28;;;;;;;82.53;43.20;;;;;;;;;;5063853;28;20044;-89
2022/01/01 03:08:57;;;;;;;86.40;44.30;;;;;;;;;;5053486;28;20495;-91
2022/01/01 03:11:24;;;;;;;76.45;43.65;;;;;;;;;;5051577;28;20520;-90
2022/01/01 03:13:50;;;;;;;90.82;44.55;;;;;;;;;;5040683;28;20437;-89
2022/01/01 03:16:16;;;;;;;85.78;45.17;;;;;;;;;;5040508;28;20163;-90
2022/01/01 03:18:42;;;;;;;89.93;46.67;;;;;;;;;;5056753;28;20099;-90
2022/01/01 03:21:09;;;;;;;86.15;47.75;;;;;;;;;;5039113;28;20404;-89
2022/01/01 03:23:35;;;;;;;89.82;46.30;;;;;;;;;;5041140;28;20047;-89
2022/01/01 03:26:01;;;;;;;88.65;48.33;;;;;;;;;;5050805;28;20461;-89
2022/01/01 03:28:28;;;;;;;86.15;48.88;;;;;;;;;;5041033;28;20037;-90
2022/01/01 03:30:55;;;;;;;98.90;50.25;;;;;;;;;;5044174;28;20036;-89
2022/01/01 03:33:21;;;;;;;91.43;48.78;;;;;;;;;;5061778;28;20044;-90
2022/01/01 03:35:48;;;;;;;88.45;47.10;;;;;;;;;;5050600;28;20041;-88
2022/01/01 03:38:15;;;;;;;92.93;48.95;;;;;;;;;;5050115;28;20037;-90
2022/01/01 03:40:41;;;;;;;91.80;49.90;;;;;;;;;;5042557;28;20135;-91
2022/01/01 03:43:07;;;;;;;89.40;50.88;;;;;;;;;;5061396;28;20049;-90
2022/01/01 03:45:33;;;;;;;95.35;50.28;;;;;;;;;;5062644;28;20055;-91
2022/01/01 03:48:00;;;;;;;93.20;51.50;;;;;;;;;;5060979;28;20400;-89
2022/01/01 03:50:26;;;;;;;93.80;50.67;;;;;;;;;;5059532;28;20044;-91
2022/01/01 03:52:52;;;;;;;92.57;51.10;;;;;;;;;;5056549;28;20036;-91
2022/01/01 03:55:18;;;;;;;90.43;51.17;;;;;;;;;;5069986;28;20032;-91
2022/01/01 03:57:44;;;;;;;91.35;52.42;;;;;;;;;;5054810;28;20037;-89
2022/01/01 04:00:11;;;;;;;100.78;53.60;;;;;;;;;;5066282;28;20064;-89
2022/01/01 04:02:38;;;;;;;100.78;54.33;;;;;;;;;;5049975;28;20040;-91
2022/01/01 04:05:04;;;;;;;96.72;54.70;;;;;;;;;;5060700;28;20033;-90
2022/01/01 04:07:33;;;;;;;92.40;55.25;;;;;;;;;;5057646;28;20045;-90
2022/01/01 04:10:00;;;;;;;97.28;56.95;;;;;;;;;;5035152;28;20043;-90
2022/01/01 04:12:26;;;;;;;98.40;55.78;;;;;;;;;;5051865;28;20124;-89
2022/01/01 04:14:53;;;;;;;99.93;55.17;;;;;;;;;;5051648;28;20041;-90
2022/01/01 04:17:20;;;;;;;96.68;57.42;;;;;;;;;;5064971;28;20105;-90
2022/01/01 04:19:46;;;;;;;100.28;56.22;;;;;;;;;;5062678;28;20111;-89
2022/01/01 04:22:13;;;;;;;101.57;58.63;;;;;;;;;;5056259;28;20479;-90
2022/01/01 04:24:40;;;;;;;96.25;55.90;;;;;;;;;;5058616;28;20050;-90
2022/01/01 04:27:07;;;;;;;98.97;54.97;;;;;;;;;;5051217;28;20029;-90
2022/01/01 04:29:34;;;;;;;106.38;56.47;;;;;;;;;;5059329;28;20036;-90
2022/01/01 04:32:01;;;;;;;105.72;58.47;;;;;;;;;;5060430;28;20093;-89
2022/01/01 04:34:27;;;;;;;103.63;57.88;;;;;;;;;;5071641;28;20044;-90
2022/01/01 04:37:02;;;;;;;104.55;58.80;;;;;;;;;;5071245;28;20503;-89
2022/01/01 04:39:29;;;;;;;102.38;57.25;;;;;;;;;;5048891;28;20508;-89
2022/01/01 04:41:55;;;;;;;107.07;62.45;;;;;;;;;;5053616;28;20500;-89
2022/01/01 04:44:22;;;;;;;107.43;63.90;;;;;;;;;;5056144;28;20072;-90
2022/01/01 04:46:48;;;;;;;111.32;64.35;;;;;;;;;;5056027;28;20108;-90
2022/01/01 04:49:14;;;;;;;115.78;65.95;;;;;;;;;;5071338;28;20384;-90
2022/01/01 04:51:40;;;;;;;118.95;67.32;;;;;;;;;;5071151;28;20044;-90
2022/01/01 04:54:14;;;;;;;116.93;67.75;;;;;;;;;;5070617;28;20040;-90
2022/01/01 04:56:43;;;;;;;121.82;66.90;;;;;;;;;;5054316;28;20044;-90
2022/01/01 04:59:10;;;;;;;129.60;69.55;;;;;;;;;;5068604;28;20094;-90
2022/01/01 05:01:36;;;;;;;123.15;70.13;;;;;;;;;;5057431;28;20606;-90
2022/01/01 05:04:03;;;;;;;126.22;71.97;;;;;;;;;;5070674;28;20132;-90
2022/01/01 05:06:29;;;;;;;123.32;73.45;;;;;;;;;;5070171;28;20060;-90
2022/01/01 05:08:55;;;;;;;129.68;72.90;;;;;;;;;;5053749;28;20072;-89
2022/01/01 05:11:21;;;;;;;126.93;72.75;;;;;;;;;;5064831;28;20048;-89
2022/01/01 05:13:47;;;;;;;119.57;71.72;;;;;;;;;;5033868;28;20161;-89
2022/01/01 05:16:18;;;;;;;127.22;72.20;;;;;;;;;;5050394;28;20083;-89
2022/01/01 05:18:45;;;;;;;122.43;72.28;;;;;;;;;;5033635;28;20045;-90
2022/01/01 05:21:11;;;;;;;122.50;70.60;;;;;;;;;;5056064;28;20044;-89
2022/01/01 05:23:37;;;;;;;127.70;73.72;;;;;;;;;;5070356;28;20076;-89
2022/01/01 05:26:04;;;;;;;124.05;68.57;;;;;;;;;;5070508;28;20036;-91
2022/01/01 05:28:31;;;;;;;122.15;71.05;;;;;;;;;;5070699;28;20565;-88
2022/01/01 05:30:57;;;;;;;137.20;72.82;;;;;;;;;;5070117;28;20041;-90
2022/01/01 05:33:23;;;;;;;128.60;69.60;;;;;;;;;;5053830;28;20404;-89
2022/01/01 05:35:50;;;;;;;123.30;70.88;;;;;;;;;;5070623;28;20040;-91
2022/01/01 05:38:17;;;;;;;124.07;69.43;;;;;;;;;;5053739;28;20090;-88
2022/01/01 05:40:43;;;;;;;127.57;68.78;;;;;;;;;;5070207;28;20102;-88
2022/01/01 05:43:13;;;;;;;127.45;68.97;;;;;;;;;;5069083;28;20135;-91
2022/01/01 05:45:43;;;;;;;124.45;70.47;;;;;;;;;;5070125;28;20037;-90
2022/01/01 05:48:10;;;;;;;128.60;67.78;;;;;;;;;;5053663;28;20040;-88
2022/01/01 05:50:36;;;;;;;125.90;65.32;;;;;;;;;;5070654;28;20487;-88
2022/01/01 05:53:02;;;;;;;127.70;64.95;;;;;;;;;;5070462;28;20430;-88
2022/01/01 05:55:28;;;;;;;123.45;65.85;;;;;;;;;;5070803;28;20041;-91
2022/01/01 05:57:55;;;;;;;130.07;65.88;;;;;;;;;;5069910;28;20082;-90
2022/01/01 06:00:21;;;;;;;117.85;62.08;;;;;;;;;;5070487;28;20044;-89
2022/01/01 06:02:47;;;;;;;118.35;61.05;;;;;;;;;;5069870;28;20040;-89
2022/01/01 06:05:13;;;;;;;116.15;59.05;;;;;;;;;;5053485;28;20052;-90
2022/01/01 06:07:40;;;;;;;113.95;57.83;;;;;;;;;;5038117;28;20388;-90
2022/01/01 06:10:06;;;;;;;110.57;58.55;;;;;;;;;;5050508;28;20123;-89
2022/01/01 06:12:32;;;;;;;111.28;56.40;;;;;;;;;;5050076;28;20041;-89
2022/01/01 06:14:58;;;;;;;121.03;57.67;;;;;;;;;;5050271;28;20036;-89
2022/01/01 06:17:25;;;;;;;98.07;50.72;;;;;;;;;;5050250;28;20048;-90
2022/01/01 06:19:51;;;;;;;97.00;46.58;;;;;;;;;;5035857;28;20040;-89
2022/01/01 06:22:17;;;;;;;90.38;44.75;;;;;;;;;;5037235;28;20067;-91
2022/01/01 06:24:43;;;;;;;94.22;46.05;;;;;;;;;;5053361;28;20114;-88
2022/01/01 06:27:10;;;;;;;92.40;42.05;;;;;;;;;;5036750;28;20048;-88
2022/01/01 06:29:36;;;;;;;95.95;41.88;;;;;;;;;;5039053;28;20659;-90
2022/01/01 06:34:54;;;;;;;92.75;38.67;;;;;;;;;;5073353;28;20093;-90
2022/01/01 06:37:21;;;;;;;105.05;41.83;;;;;;;;;;5073221;28;20091;-89
2022/01/01 06:39:47;;;;;;;96.65;38.55;;;;;;;;;;5073556;28;20110;-90
2022/01/01 06:42:13;;;;;;;95.35;38.58;;;;;;;;;;5073384;28;20072;-90
2022/01/01 06:44:39;;;;;;;100.32;38.85;;;;;;;;;;5073303;28;20051;-89
2022/01/01 06:47:05;;;;;;;97.05;38.53;;;;;;;;;;5073713;28;20502;-90
2022/01/01 06:49:31;;;;;;;85.05;36.80;;;;;;;;;;5067275;28;20037;-89
2022/01/01 06:51:57;;;;;;;96.50;38.85;;;;;;;;;;5053804;28;20131;-89
2022/01/01 06:54:24;;;;;;;85.63;35.88;;;;;;;;;;5055940;28;20036;-90
2022/01/01 06:56:50;;;;;;;95.93;37.65;;;;;;;;;;5055722;28;20041;-89
2022/01/01 06:59:16;;;;;;;98.38;36.63;;;;;;;;;;5038821;28;20037;-89
2022/01/01 07:01:42;;;;;;;97.43;37.40;;;;;;;;;;5041594;28;20428;-90
2022/01/01 07:04:08;;;;;;;92.72;35.95;;;;;;;;;;5055173;28;20048;-90
2022/01/01 07:06:35;;;;;;;83.88;34.47;;;;;;;;;;5041354;28;20074;-89
2022/01/01 07:09:01;;;;;;;80.47;34.22;;;;;;;;;;5040872;28;20167;-90
2022/01/01 07:11:27;;;;;;;85.30;36.38;;;;;;;;;;5038160;28;20037;-89
2022/01/01 07:13:54;;;;;;;82.07;34.40;;;;;;;;;;5060409;28;20099;-88
2022/01/01 07:16:20;;;;;;;89.40;34.63;;;;;;;;;;5060754;28;20037;-89
2022/01/01 07:18:47;;;;;;;81.53;36.17;;;;;;;;;;5055527;28;20036;-89
2022/01/01 07:21:13;;;;;;;71.95;31.25;;;;;;;;;;5050744;28;20045;-89
2022/01/01 07:23:39;;;;;;;74.53;32.40;;;;;;;;;;5045452;28;20040;-88
2022/01/01 07:26:05;;;;;;;77.40;30.35;;;;;;;;;;5046998;28;20495;-89
2022/01/01 07:28:32;;;;;;;74.88;31.55;;;;;;;;;;5066705;28;20188;-89
2022/01/01 07:30:58;;;;;;;84.80;33.35;;;;;;;;;;5051909;28;20037;-89
2022/01/01 07:33:24;;;;;;;74.75;31.67;;;;;;;;;;5061485;28;20507;-89
2022/01/01 07:35:50;;;;;;;77.90;32.42;;;;;;;;;;5072305;28;20044;-89
2022/01/01 07:38:16;;;;;;;83.55;31.35;;;;;;;;;;5044681;28;20522;-89
2022/01/01 07:40:42;;;;;;;78.35;31.73;;;;;;;;;;5061866;28;20047;-88
2022/01/01 07:43:13;;;;;;;68.75;30.77;;;;;;;;;;5052806;28;20052;-89
2022/01/01 07:45:39;;;;;;;75.38;31.17;;;;;;;;;;5055937;28;20124;-89
2022/01/01 07:48:09;;;;;;;71.32;31.25;;;;;;;;;;5038508;28;20514;-89
2022/01/01 07:50:35;;;;;;;73.80;30.25;;;;;;;;;;5051422;28;20041;-90
2022/01/01 07:53:02;;;;;;;70.65;30.00;;;;;;;;;;5052701;28;20036;-89
2022/01/01 07:55:28;;;;;;;63.35;29.70;;;;;;;;;;5053013;28;20037;-90
2022/01/01 07:57:54;;;;;;;66.78;28.17;;;;;;;;;;5038487;28;20108;-89
2022/01/01 08:00:21;;;;;;;73.78;30.77;;;;;;;;;;5053982;28;20082;-90
2022/01/01 08:02:48;;;;;;;69.53;30.30;;;;;;;;;;5045203;28;20048;-89
2022/01/01 08:05:18;;;;;;;62.72;28.75;;;;;;;;;;5041301;28;20448;-89
2022/01/01 08:07:45;;;;;;;75.72;31.85;;;;;;;;;;5043212;28;20540;-89
2022/01/01 08:10:11;;;;;;;75.60;31.98;;;;;;;;;;5056688;28;20630;-89
2022/01/01 08:12:38;;;;;;;74.28;32.53;;;;;;;;;;5042968;28;20396;-90
2022/01/01 08:15:05;;;;;;;70.85;31.77;;;;;;;;;;5057021;28;20124;-89
2022/01/01 08:17:31;;;;;;;73.32;34.25;;;;;;;;;;5068837;28;20052;-89
2022/01/01 08:19:57;;;;;;;71.75;32.92;;;;;;;;;;5071480;28;20044;-89
2022/01/01 08:22:24;;;;;;;73.05;33.03;;;;;;;;;;5071429;28;20036;-90
2022/01/01 08:24:50;;;;;;;67.50;33.40;;;;;;;;;;5067282;28;20036;-89
2022/01/01 08:27:16;;;;;;;79.03;35.10;;;;;;;;;;5053454;28;20052;-88
2022/01/01 08:29:42;;;;;;;75.72;34.05;;;;;;;;;;5059156;28;20411;-90
2022/01/01 08:32:09;;;;;;;77.55;34.05;;;;;;;;;;5060884;28;20072;-89
2022/01/01 08:34:35;;;;;;;73.65;34.88;;;;;;;;;;5071186;28;20058;-90
2022/01/01 08:37:01;;;;;;;69.88;33.95;;;;;;;;;;5059512;28;20047;-90
2022/01/01 08:39:27;;;;;;;76.50;35.25;;;;;;;;;;5031536;28;20079;-88
2022/01/01 08:41:53;;;;;;;84.88;36.22;;;;;;;;;;5064526;28;20068;-89
2022/01/01 08:44:20;;;;;;;73.80;36.20;;;;;;;;;;5062691;28;20052;-89
2022/01/01 08:46:46;;;;;;;87.07;37.55;;;;;;;;;;5062026;28;20044;-88
2022/01/01 08:49:12;;;;;;;92.47;38.05;;;;;;;;;;5055966;28;20068;-88
2022/01/01 08:51:41;;;;;;;82.68;39.47;;;;;;;;;;5051957;28;20033;-90
2022/01/01 08:54:07;;;;;;;97.30;41.67;;;;;;;;;;5032681;28;20120;-88
2022/01/01 08:56:34;;;;;;;93.28;40.20;;;;;;;;;;5052007;28;20044;-89
2022/01/01 08:59:00;;;;;;;91.90;41.83;;;;;;;;;;5053392;28;20048;-89
2022/01/01 09:01:27;;;;;;;91.05;40.67;;;;;;;;;;5040363;28;20067;-89
2022/01/01 09:03:54;;;;;;;86.47;39.25;;;;;;;;;;5058436;28;20067;-89
2022/01/01 09:06:20;;;;;;;99.80;41.65;;;;;;;;;;5060298;28;20043;-89
2022/01/01 09:08:46;;;;;;;89.25;40.53;;;;;;;;;;5064277;28;20044;-91
2022/01/01 09:11:13;;;;;;;87.88;40.80;;;;;;;;;;5042993;28;20037;-89
2022/01/01 09:13:42;;;;;;;85.18;40.65;;;;;;;;;;5049032;28;20037;-89
2022/01/01 09:16:10;;;;;;;85.22;39.75;;;;;;;;;;5052355;28;20040;-89
2022/01/01 09:18:37;;;;;;;85.72;40.35;;;;;;;;;;5056020;28;20238;-88
2022/01/01 09:21:04;;;;;;;77.35;37.28;;;;;;;;;;5032261;28;20563;-89
2022/01/01 09:23:30;;;;;;;74.25;36.20;;;;;;;;;;5064408;28;20120;-90
2022/01/01 09:25:56;;;;;;;71.45;35.63;;;;;;;;;;5047786;28;20032;-88
2022/01/01 09:28:22;;;;;;;69.25;36.15;;;;;;;;;;5050097;28;20076;-87
2022/01/01 09:30:48;;;;;;;68.40;35.10;;;;;;;;;;5058523;28;20032;-90
2022/01/01 09:33:15;;;;;;;65.78;33.83;;;;;;;;;;5059683;28;20043;-89
2022/01/01 09:35:41;;;;;;;62.38;35.28;;;;;;;;;;5054169;28;20037;-90
2022/01/01 09:38:07;;;;;;;58.65;32.85;;;;;;;;;;5063031;28;20390;-87
2022/01/01 09:40:33;;;;;;;58.28;33.42;;;;;;;;;;5053805;28;20083;-89
2022/01/01 09:43:00;;;;;;;63.10;31.88;;;;;;;;;;5053422;28;20504;-89
2022/01/01 09:45:26;;;;;;;55.33;31.00;;;;;;;;;;5047991;28;20053;-86
2022/01/01 09:47:52;;;;;;;49.78;30.63;;;;;;;;;;5057346;28;20032;-89
2022/01/01 09:50:27;;;;;;;51.05;30.05;;;;;;;;;;5057499;28;20472;-88
2022/01/01 09:52:53;;;;;;;54.38;29.88;;;;;;;;;;5055165;28;20083;-89
2022/01/01 09:55:20;;;;;;;55.92;29.05;;;;;;;;;;5059775;28;20029;-88
2022/01/01 09:57:48;;;;;;;50.05;28.65;;;;;;;;;;5045992;28;20032;-88
2022/01/01 10:00:15;;;;;;;48.30;28.65;;;;;;;;;;5040068;28;20041;-88
2022/01/01 10:02:41;;;;;;;48.95;28.63;;;;;;;;;;5054084;28;20719;-88
2022/01/01 10:05:07;;;;;;;51.15;28.73;;;;;;;;;;5052802;28;20481;-90
2022/01/01 10:07:33;;;;;;;46.42;26.90;;;;;;;;;;5055723;28;20131;-88
2022/01/01 10:10:17;;;;;;;48.78;27.30;;;;;;;;;;5053860;28;20038;-88
2022/01/01 10:12:43;;;;;;;50.05;29.75;;;;;;;;;;5057248;28;20055;-90
2022/01/01 10:15:10;;;;;;;51.63;28.98;;;;;;;;;;5050637;28;20098;-87
2022/01/01 10:17:36;;;;;;;55.45;29.25;;;;;;;;;;5045534;28;20133;-88
2022/01/01 10:20:03;;;;;;;49.60;27.88;;;;;;;;;;5042580;28;20068;-88
2022/01/01 10:22:30;;;;;;;51.80;28.30;;;;;;;;;;5038610;28;20507;-89
2022/01/01 10:27:52;;;;;;;43.35;26.00;;;;;;;;;;5053452;28;20052;-89
2022/01/01 10:30:23;;;;;;;49.58;27.30;;;;;;;;;;5062246;28;20037;-89
2022/01/01 10:33:00;;;;;;;43.50;25.63;;;;;;;;;;5033911;28;20480;-87
2022/01/01 10:35:26;;;;;;;44.63;24.95;;;;;;;;;;5057710;28;20041;-89
2022/01/01 10:37:52;;;;;;;43.22;24.52;;;;;;;;;;5051796;28;20033;-89
2022/01/01 10:40:26;;;;;;;41.63;24.90;;;;;;;;;;5037611;28;20423;-88
2022/01/01 10:42:52;;;;;;;39.47;23.90;;;;;;;;;;5054150;28;20053;-87
2022/01/01 10:45:30;;;;;;;44.53;23.05;;;;;;;;;;5037574;28;20037;-89
2022/01/01 10:48:14;;;;;;;43.30;23.50;;;;;;;;;;5058745;28;20127;-89
2022/01/01 10:50:42;;;;;;;37.53;22.67;;;;;;;;;;5048239;28;20485;-89
2022/01/01 10:53:15;;;;;;;39.28;22.17;;;;;;;;;;5060036;28;20041;-85
2022/01/01 10:55:42;;;;;;;37.13;22.33;;;;;;;;;;5073681;28;20044;-89
2022/01/01 10:58:09;;;;;;;41.25;22.40;;;;;;;;;;5059517;28;20037;-91
2022/01/01 11:00:42;;;;;;;37.17;22.45;;;;;;;;;;5064670;28;20037;-88
2022/01/01 11:03:09;;;;;;;33.28;20.88;;;;;;;;;;5033415;28;20138;-90
2022/01/01 11:05:38;;;;;;;37.20;21.23;;;;;;;;;;5058693;28;20079;-89
2022/01/01 11:08:09;;;;;;;38.42;19.98;;;;;;;;;;5040422;28;20040;-91
2022/01/01 11:10:39;;;;;;;36.90;22.05;;;;;;;;;;5051039;28;20045;-89
2022/01/01 11:13:06;;;;;;;32.92;19.70;;;;;;;;;;5054884;28;20067;-88
2022/01/01 11:15:32;;;;;;;33.40;19.55;;;;;;;;;;5061037;28;20045;-89
2022/01/01 11:18:00;;;;;;;33.58;19.00;;;;;;;;;;5056582;28;20094;-92
2022/01/01 11:20:30;;;;;;;33.50;18.83;;;;;;;;;;5055962;28;20037;-90
2022/01/01 11:22:56;;;;;;;36.78;18.73;;;;;;;;;;5064834;28;20047;-90
2022/01/01 11:25:26;;;;;;;32.80;17.05;;;;;;;;;;5050497;28;20144;-89
2022/01/01 11:27:53;;;;;;;28.90;16.02;;;;;;;;;;5062920;28;20506;-89
2022/01/01 11:30:20;;;;;;;27.80;16.98;;;;;;;;;;5053807;28;20043;-89
2022/01/01 11:33:12;;;;;;;29.58;15.43;;;;;;;;;;5054025;28;20044;-89
2022/01/01 11:35:41;;;;;;;28.77;15.52;;;;;;;;;;5054143;28;20135;-89
2022/01/01 11:38:08;;;;;;;26.00;14.77;;;;;;;;;;5051849;28;20084;-87
2022/01/01 11:40:55;;;;;;;25.33;15.45;;;;;;;;;;5049221;28;20143;-88
2022/01/01 11:43:36;;;;;;;22.75;13.65;;;;;;;;;;5057808;28;20629;-88
2022/01/01 11:46:26;;;;;;;25.80;13.35;;;;;;;;;;5061979;28;20083;-87
2022/01/01 11:48:52;;;;;;;23.13;11.90;;;;;;;;;;5055478;28;20075;-90
2022/01/01 11:51:35;;;;;;;22.30;11.80;;;;;;;;;;5041858;28;20064;-88
2022/01/01 11:54:04;;;;;;;22.67;10.57;;;;;;;;;;5052928;28;20483;-87
2022/01/01 11:56:49;;;;;;;21.38;10.43;;;;;;;;;;5055741;28;20052;-89
2022/01/01 11:59:18;;;;;;;18.65;10.10;;;;;;;;;;5058885;28;20045;-87
2022/01/01 12:01:45;;;;;;;15.43;9.00;;;;;;;;;;5055023;28;20037;-89
2022/01/01 12:04:31;;;;;;;21.85;10.48;;;;;;;;;;5041820;28;20044;-90
2022/01/01 12:06:59;;;;;;;19.73;9.65;;;;;;;;;;5051625;28;20053;-89
2022/01/01 12:09:25;;;;;;;18.55;9.27;;;;;;;;;;5054904;28;20037;-89
2022/01/01 12:11:56;;;;;;;18.08;9.13;;;;;;;;;;5056980;28;20037;-89
2022/01/01 12:14:26;;;;;;;19.13;9.18;;;;;;;;;;5058208;28;20040;-89
2022/01/01 12:16:53;;;;;;;16.20;8.70;;;;;;;;;;5037945;28;20080;-88
2022/01/01 12:19:21;;;;;;;17.90;8.75;;;;;;;;;;5054476;28;20048;-87
2022/01/01 12:21:48;;;;;;;15.30;9.35;;;;;;;;;;5055073;28;20044;-88
2022/01/01 12:24:21;;;;;;;20.05;9.25;;;;;;;;;;5047572;28;20045;-88
2022/01/01 12:26:53;;;;;;;17.60;8.90;;;;;;;;;;5050343;28;20074;-90
2022/01/01 12:29:22;;;;;;;17.75;9.38;;;;;;;;;;5035815;28;20591;-89
2022/01/01 12:31:55;;;;;;;16.33;8.32;;;;;;;;;;5050087;28;20107;-87
2022/01/01 12:34:22;;;;;;;18.92;9.30;;;;;;;;;;5048960;28;20259;-89
2022/01/01 12:36:55;;;;;;;18.23;9.98;;;;;;;;;;5046899;28;20045;-89
2022/01/01 12:39:22;;;;;;;16.10;9.02;;;;;;;;;;5050346;28;20511;-87
2022/01/01 12:41:48;;;;;;;17.38;8.23;;;;;;;;;;5053110;28;20056;-88
2022/01/01 12:44:19;;;;;;;16.67;8.35;;;;;;;;;;5053131;28;20103;-89
2022/01/01 12:46:45;;;;;;;15.52;8.57;;;;;;;;;;5062447;28;20040;-88
2022/01/01 12:49:13;;;;;;;19.33;9.95;;;;;;;;;;5041333;28;20409;-88
2022/01/01 12:51:39;;;;;;;17.58;9.85;;;;;;;;;;5057525;28;20037;-87
2022/01/01 12:54:07;;;;;;;18.45;9.32;;;;;;;;;;5033630;28;20040;-89
2022/01/01 12:56:34;;;;;;;22.92;8.65;;;;;;;;;;5030894;28;20051;-88
2022/01/01 12:59:03;;;;;;;15.32;7.70;;;;;;;;;;5039674;28;20067;-90
2022/01/01 13:01:29;;;;;;;14.40;8.02;;;;;;;;;;5057450;28;20045;-90
2022/01/01 13:04:00;;;;;;;17.60;8.43;;;;;;;;;;5053411;28;20041;-89
2022/01/01 13:06:30;;;;;;;15.02;8.10;;;;;;;;;;5050825;28;20056;-89
2022/01/01 13:09:04;;;;;;;17.58;8.57;;;;;;;;;;5051297;28;20044;-89
2022/01/01 13:11:31;;;;;;;19.25;8.60;;;;;;;;;;5050809;28;20531;-89
2022/01/01 13:13:58;;;;;;;15.90;7.43;;;;;;;;;;5039777;28;20044;-89
2022/01/01 13:16:24;;;;;;;16.35;7.82;;;;;;;;;;5059189;28;20047;-87
2022/01/01 13:18:50;;;;;;;17.55;8.63;;;;;;;;;;5057312;28;20127;-89
2022/01/01 13:21:17;;;;;;;18.20;8.30;;;;;;;;;;5060703;28;20041;-90
2022/01/01 13:23:43;;;;;;;15.55;8.55;;;;;;;;;;5049333;28;20045;-90
2022/01/01 13:26:09;;;;;;;16.95;9.18;;;;;;;;;;5031745;28;20041;-89
2022/01/01 13:28:36;;;;;;;16.27;8.02;;;;;;;;;;5062821;28;20040;-90
2022/01/01 13:31:04;;;;;;;14.52;7.68;;;;;;;;;;5055180;28;20056;-89
2022/01/01 13:33:31;;;;;;;15.10;8.02;;;;;;;;;;5064131;28;20063;-89
2022/01/01 13:35:58;;;;;;;15.32;8.50;;;;;;;;;;5058048;28;20051;-89
2022/01/01 13:38:25;;;;;;;16.02;7.85;;;;;;;;;;5070726;28;20044;-90
2022/01/01 13:40:55;;;;;;;15.60;8.25;;;;;;;;;;5044490;28;20072;-87
2022/01/01 13:43:26;;;;;;;16.75;8.05;;;;;;;;;;5056603;28;20059;-89
2022/01/01 13:46:11;;;;;;;18.05;8.90;;;;;;;;;;5038650;28;20049;-88
2022/01/01 13:48:48;;;;;;;17.90;8.18;;;;;;;;;;5060838;28;20439;-88
2022/01/01 13:51:15;;;;;;;14.75;7.85;;;;;;;;;;5057551;28;20465;-89
2022/01/01 13:53:42;;;;;;;15.07;8.30;;;;;;;;;;5040825;28;20073;-88
2022/01/01 13:56:11;;;;;;;15.70;8.05;;;;;;;;;;5043318;28;20052;-88
2022/01/01 13:58:41;;;;;;;18.23;8.60;;;;;;;;;;5056915;28;20048;-89
2022/01/01 14:01:08;;;;;;;16.95;8.48;;;;;;;;;;5054972;28;20495;-89
2022/01/01 14:03:34;;;;;;;16.05;8.85;;;;;;;;;;5054369;28;20044;-89
2022/01/01 14:06:01;;;;;;;17.35;8.95;;;;;;;;;;5051913;28;20120;-89
2022/01/01 14:08:27;;;;;;;15.95;9.90;;;;;;;;;;5051196;28;20443;-90
2022/01/01 14:11:01;;;;;;;16.15;9.73;;;;;;;;;;5057040;28;20075;-89
2022/01/01 14:13:31;;;;;;;16.43;9.27;;;;;;;;;;5035938;28;20074;-89
2022/01/01 14:15:58;;;;;;;19.15;9.48;;;;;;;;;;5042137;28;20443;-87
2022/01/01 14:18:29;;;;;;;18.80;9.52;;;;;;;;;;5053831;28;20480;-87
2022/01/01 14:20:55;;;;;;;15.73;8.07;;;;;;;;;;5057234;28;20132;-89
2022/01/01 14:23:35;;;;;;;19.67;9.32;;;;;;;;;;5037212;28;20131;-89
2022/01/01 14:26:02;;;;;;;16.10;9.30;;;;;;;;;;5064743;28;20069;-86